Flight Track Log - Related Links

Times and Time Zones

All times are in EDT time to prevent confusion due to time zone crossing. See the UAL685 flight status page for this flight to view local times or setup timezone preferences in your user account.

Time Position Orientation Groundspeed Altitude Reporting Facility
EDT Latitude Longitude Course Direction KTS MPH feet Rate Location/Type
Wed 10:00:17 AM 32.7417 -117.2208 73° East 155 178 1,300  Level Los Angeles Center
Wed 10:01:18 AM 32.7550 -117.2867 284° West 198 228 2,600 1,854 Climbing Los Angeles Center
Wed 10:02:00 AM 32.6123 -117.0449 103° East  Level FlightAware Approximate
Wed 10:02:20 AM 32.7039 -117.3086 200° South 239 275 5,100  Level Los Angeles Center
Wed 10:03:00 AM 32.6060 -116.9010 84° East  Level FlightAware Approximate
Wed 10:03:22 AM 32.6464 -117.2567 143° Southeast 259 298 7,800  Level Los Angeles Center
Wed 10:04:00 AM 32.6193 -116.7561 73° East  Level FlightAware Approximate
Wed 10:04:23 AM 32.6331 -117.1347 97° East 304 350 10,500  Level Los Angeles Center
Wed 10:05:00 AM 32.6343 -116.6126 73° East  Level FlightAware Approximate
Wed 10:05:25 AM 32.6167 -117.0239 100° East 334 384 11,600  Level Los Angeles Center
Wed 10:06:26 AM 32.6189 -116.8967 89° East 366 421 13,700 1,951 Climbing Los Angeles Center
Wed 10:07:28 AM 32.6308 -116.7667 84° East 387 445 15,600 1,887 Climbing Los Angeles Center
Wed 10:08:30 AM 32.6447 -116.6319 83° East 401 461 17,600 1,839 Climbing Los Angeles Center
Wed 10:09:32 AM 32.6575 -116.4942 84° East 419 482 19,400 1,805 Climbing Los Angeles Center
Wed 10:10:33 AM 32.6728 -116.3272 84° East 430 495 21,300 1,756 Climbing Los Angeles Center
Wed 10:11:35 AM 32.6869 -116.1831 83° East 445 512 23,000 1,463 Climbing Los Angeles Center
Wed 10:12:36 AM 32.7006 -116.0367 84° East 449 517 24,300 1,268 Climbing Los Angeles Center
Wed 10:13:38 AM 32.7144 -115.8864 84° East 458 527 25,600 1,258 Climbing Los Angeles Center
Wed 10:14:40 AM 32.7281 -115.7356 84° East 462 532 26,900 1,122 Climbing Los Angeles Center
Wed 10:15:41 AM 32.7425 -115.5825 84° East 468 539 27,900 1,317 Climbing Los Angeles Center
Wed 10:16:43 AM 32.7522 -115.3958 86° East 473 544 29,600 1,355 Climbing Los Angeles Center
Wed 10:17:45 AM 32.7553 -115.2417 89° East 470 541 30,700 1,122 Climbing Los Angeles Center
Wed 10:18:46 AM 32.7597 -115.0850 88° East 472 543 31,900 1,073 Climbing Los Angeles Center
Wed 10:19:48 AM 32.7639 -114.9306 88° East 470 541 32,900 1,065 Climbing Los Angeles Center
Wed 10:20:50 AM 32.7669 -114.7758 89° East 469 540 34,100 968 Climbing Los Angeles Center
Wed 10:21:52 AM 32.7697 -114.6222 89° East 467 537 34,900 390 Climbing Los Angeles Center
Wed 10:22:53 AM 32.7714 -114.4683 89° East 465 535 34,900 49 Level Los Angeles Center
Wed 10:23:55 AM 32.7744 -114.2828 89° East 467 537 35,000 48 Climbing Los Angeles Center
Wed 10:24:57 AM 32.7756 -114.1289 89° East 466 536 35,000  Level Los Angeles Center
Wed 10:25:34 AM 32.7767 -114.0467 89° East 468 539 35,000  Level Albuquerque Center
Wed 10:26:36 AM 32.7881 -113.8917 85° East 469 540 35,000 -48 Level Albuquerque Center
Wed 10:27:38 AM 32.8108 -113.7389 80° East 468 539 34,900 -49 Descending Albuquerque Center
Wed 10:28:39 AM 32.8572 -113.5622 73° East 463 533 34,900  Level Albuquerque Center
Wed 10:29:41 AM 32.9106 -113.4208 66° East 464 534 34,900 48 Level Albuquerque Center
Wed 10:30:43 AM 32.9633 -113.2786 66° East 466 536 35,000 48 Climbing Albuquerque Center
Wed 10:31:45 AM 33.0175 -113.1364 66° East 468 539 35,000 -48 Level Albuquerque Center
Wed 10:32:47 AM 33.0706 -112.9928 66° East 470 541 34,900  Descending Albuquerque Center
Wed 10:33:49 AM 33.1236 -112.8508 66° East 468 539 35,000 48 Climbing Albuquerque Center
Wed 10:34:51 AM 33.1761 -112.7069 66° East 470 541 35,000  Level Albuquerque Center
Wed 10:35:53 AM 33.2306 -112.5611 66° East 469 540 35,000  Level Albuquerque Center
Wed 10:36:55 AM 33.2828 -112.4186 66° East 471 542 35,000  Level Albuquerque Center
Wed 10:37:57 AM 33.3456 -112.2461 66° East 473 544 35,000  Level Albuquerque Center
Wed 10:38:59 AM 33.3983 -112.1011 66° East 475 547 35,000  Level Albuquerque Center
Wed 10:40:01 AM 33.4503 -111.9578 66° East 476 548 35,000  Level Albuquerque Center
Wed 10:41:03 AM 33.5019 -111.8156 66° East 473 544 35,000  Level Albuquerque Center
Wed 10:42:05 AM 33.5533 -111.6733 67° East 471 542 35,000  Level Albuquerque Center
Wed 10:43:07 AM 33.6147 -111.5008 67° East 474 545 35,000  Level Albuquerque Center
Wed 10:44:09 AM 33.6658 -111.3561 67° East 477 549 35,000  Level Albuquerque Center
Wed 10:45:11 AM 33.7178 -111.2103 67° East 479 551 35,000  Level Albuquerque Center
Wed 10:46:13 AM 33.7697 -111.0642 67° East 479 551 35,000  Level Albuquerque Center
Wed 10:47:15 AM 33.8322 -110.8864 67° East 484 557 35,000 242 Level Albuquerque Center
Wed 10:48:17 AM 33.8856 -110.7400 66° East 481 554 35,500 629 Climbing Albuquerque Center
Wed 10:49:19 AM 33.9506 -110.6014 60° Northeast 477 549 36,300 726 Climbing Albuquerque Center
Wed 10:50:21 AM 34.0236 -110.4461 60° Northeast 481 554 37,000 339 Climbing Albuquerque Center
Wed 10:51:23 AM 34.0878 -110.3072 61° Northeast 480 552 37,000  Level Albuquerque Center
Wed 10:52:25 AM 34.1511 -110.1678 61° Northeast 479 551 37,000  Level Albuquerque Center
Wed 10:53:27 AM 34.2167 -110.0231 61° Northeast 481 554 37,000  Level Albuquerque Center
Wed 10:54:29 AM 34.2889 -109.8669 61° Northeast 479 551 37,000  Level Albuquerque Center
Wed 10:55:31 AM 34.3497 -109.7319 61° Northeast 479 551 37,000  Level Albuquerque Center
Wed 10:56:33 AM 34.4228 -109.5725 61° Northeast 483 556 37,000  Level Albuquerque Center
Wed 10:57:35 AM 34.4842 -109.4336 62° Northeast 487 560 37,000  Level Albuquerque Center
Wed 10:58:37 AM 34.5558 -109.2744 61° Northeast 485 558 37,000  Level Albuquerque Center
Wed 10:59:39 AM 34.6175 -109.1350 62° Northeast 488 562 37,000  Level Albuquerque Center
Wed 11:00:41 AM 34.6889 -108.9733 62° Northeast 488 562 37,000  Level Albuquerque Center
Wed 11:01:43 AM 34.7500 -108.8339 62° Northeast 489 563 37,000  Level Albuquerque Center
Wed 11:02:45 AM 34.8219 -108.6731 61° Northeast 487 560 37,000  Level Albuquerque Center
Wed 11:03:47 AM 34.8831 -108.5331 62° Northeast 488 562 37,000  Level Albuquerque Center
Wed 11:04:49 AM 34.9547 -108.3711 62° Northeast 488 562 37,000  Level Albuquerque Center
Wed 11:05:51 AM 35.0150 -108.2306 62° Northeast 489 563 37,000  Level Albuquerque Center
Wed 11:06:54 AM 35.0861 -108.0664 62° Northeast 491 565 37,000  Level Albuquerque Center
Wed 11:07:56 AM 35.1467 -107.9264 62° Northeast 490 564 37,000  Level Albuquerque Center
Wed 11:08:58 AM 35.2083 -107.7856 62° Northeast 491 565 37,000  Level Albuquerque Center
Wed 11:10:00 AM 35.2789 -107.6203 62° Northeast 492 566 37,000  Level Albuquerque Center
Wed 11:11:02 AM 35.3428 -107.4686 63° Northeast 490 564 37,000  Level Albuquerque Center
Wed 11:12:04 AM 35.4089 -107.3119 63° Northeast 493 567 37,000  Level Albuquerque Center
Wed 11:13:06 AM 35.4708 -107.1669 62° Northeast 495 570 37,000  Level Albuquerque Center
Wed 11:14:08 AM 35.5344 -107.0156 63° Northeast 495 570 37,000  Level Albuquerque Center
Wed 11:15:10 AM 35.5983 -106.8619 63° Northeast 499 574 37,000  Level Albuquerque Center
Wed 11:16:12 AM 35.6717 -106.6853 63° Northeast 501 577 37,000 48 Level Albuquerque Center
Wed 11:17:14 AM 35.7331 -106.5400 62° Northeast 501 577 37,100  Climbing Albuquerque Center
Wed 11:18:16 AM 35.8022 -106.3697 63° Northeast 499 574 37,000 -48 Descending Albuquerque Center
Wed 11:19:18 AM 35.8628 -106.2242 63° Northeast 499 574 37,000  Level Albuquerque Center
Wed 11:20:20 AM 35.9264 -106.0658 64° Northeast 500 575 37,000  Level Albuquerque Center
Wed 11:21:22 AM 35.9872 -105.9131 64° Northeast 498 573 37,000  Level Albuquerque Center
Wed 11:22:24 AM 36.0478 -105.7617 64° Northeast 493 567 37,000  Level Albuquerque Center
Wed 11:23:26 AM 36.1094 -105.6086 63° Northeast 495 570 37,000  Level Albuquerque Center
Wed 11:24:28 AM 36.1775 -105.4353 64° Northeast 492 566 37,000  Level Albuquerque Center
Wed 11:25:30 AM 36.2392 -105.2803 64° Northeast 493 567 37,000  Level Albuquerque Center
Wed 11:26:32 AM 36.3008 -105.1261 64° Northeast 494 568 37,000  Level Albuquerque Center
Wed 11:27:34 AM 36.3714 -104.9456 64° Northeast 493 567 37,000  Level Albuquerque Center
Wed 11:28:37 AM 36.4308 -104.7922 64° Northeast 489 563 37,000  Level Albuquerque Center
Wed 11:29:39 AM 36.4911 -104.6361 64° Northeast 492 566 37,000  Level Albuquerque Center
Wed 11:30:41 AM 36.5525 -104.4786 64° Northeast 498 573 37,000  Level Albuquerque Center
Wed 11:31:43 AM 36.6131 -104.3228 64° Northeast 496 571 37,000  Level Albuquerque Center
Wed 11:32:45 AM 36.6731 -104.1656 65° Northeast 497 572 37,000  Level Albuquerque Center
Wed 11:33:47 AM 36.7331 -104.0094 64° Northeast 494 568 37,000  Level Albuquerque Center
Wed 11:34:49 AM 36.7925 -103.8522 65° Northeast 496 571 37,000  Level Albuquerque Center
Wed 11:35:51 AM 36.8611 -103.6703 65° Northeast 492 566 37,000  Level Albuquerque Center
Wed 11:36:53 AM 36.9200 -103.5142 65° Northeast 492 566 37,000  Level Albuquerque Center
Wed 11:37:55 AM 36.9778 -103.3550 66° East 495 570 37,000  Level Albuquerque Center
Wed 11:38:57 AM 37.0381 -103.2006 64° Northeast 492 566 37,000  Level Albuquerque Center
Wed 11:39:59 AM 37.0961 -103.0422 65° Northeast 493 567 37,000  Level Albuquerque Center
Wed 11:41:01 AM 37.1544 -102.8856 65° Northeast 493 567 37,000  Level Albuquerque Center
Wed 11:42:03 AM 37.2122 -102.7244 66° East 494 568 37,000  Level Albuquerque Center
Wed 11:43:05 AM 37.2758 -102.5483 66° East 495 570 37,000  Level Albuquerque Center
Wed 11:44:07 AM 37.3306 -102.3986 65° Northeast 494 568 37,000  Level Albuquerque Center
Wed 11:45:09 AM 37.3950 -102.2222 65° Northeast 496 571 37,000  Level Albuquerque Center
Wed 11:46:11 AM 37.4492 -102.0697 66° East 498 573 37,000  Level Albuquerque Center
Wed 11:47:12 AM 37.5128 -101.8919 66° East 498 573 37,000  Level Albuquerque Center
Wed 11:48:00 AM 37.5486 -101.7897 66° East 499 574 37,000  Level Kansas City Center
Wed 11:49:02 AM 37.6119 -101.6111 66° East 499 574 37,000  Level Kansas City Center
Wed 11:50:04 AM 37.6658 -101.4581 66° East 498 573 37,000  Level Kansas City Center
Wed 11:51:06 AM 37.7283 -101.2786 66° East 499 574 37,000  Level Kansas City Center
Wed 11:52:08 AM 37.7817 -101.1258 66° East 494 568 37,000  Level Kansas City Center
Wed 11:53:10 AM 37.8442 -100.9450 66° East 494 568 37,000  Level Kansas City Center
Wed 11:54:12 AM 37.8983 -100.7892 66° East 498 573 37,000  Level Kansas City Center
Wed 11:55:14 AM 37.9406 -100.6325 71° East 491 565 37,000  Level Kansas City Center
Wed 11:56:16 AM 37.9803 -100.4478 75° East 485 558 37,000  Level Kansas City Center
Wed 11:57:18 AM 38.0147 -100.2919 74° East 481 554 37,000  Level Kansas City Center
Wed 11:58:20 AM 38.0544 -100.1103 74° East 480 552 37,000  Level Kansas City Center
Wed 11:59:22 AM 38.0878 -99.9547 75° East 478 550 37,000  Level Kansas City Center
Wed 12:00:24 PM 38.1275 -99.7714 75° East 481 554 37,000  Level Kansas City Center
Wed 12:01:26 PM 38.1617 -99.6117 75° East 488 562 37,000 48 Level Kansas City Center
Wed 12:02:28 PM 38.1978 -99.4522 74° East 487 560 37,100 48 Climbing Kansas City Center
Wed 12:03:30 PM 38.2325 -99.2881 75° East 483 556 37,100 -48 Level Kansas City Center
Wed 12:04:32 PM 38.2661 -99.1250 75° East 477 549 37,000 -48 Descending Kansas City Center
Wed 12:05:34 PM 38.3078 -98.9306 75° East 474 545 37,000  Level Kansas City Center
Wed 12:06:36 PM 38.3450 -98.7672 74° East 479 551 37,000  Level Kansas City Center
Wed 12:07:38 PM 38.3772 -98.6025 76° East 478 550 37,000  Level Kansas City Center
Wed 12:08:40 PM 38.4122 -98.4389 75° East 477 549 37,000  Level Kansas City Center
Wed 12:09:42 PM 38.4456 -98.2753 75° East 473 544 37,000  Level Kansas City Center
Wed 12:10:44 PM 38.4789 -98.1111 75° East 474 545 37,000  Level Kansas City Center
Wed 12:11:47 PM 38.5119 -97.9467 76° East 475 547 37,000  Level Kansas City Center
Wed 12:12:49 PM 38.5506 -97.7497 76° East 473 544 37,000  Level Kansas City Center
Wed 12:13:51 PM 38.5825 -97.5867 76° East 472 543 37,000  Level Kansas City Center
Wed 12:14:53 PM 38.6147 -97.4239 76° East 471 542 37,000  Level Kansas City Center
Wed 12:15:55 PM 38.6461 -97.2625 76° East 467 537 37,000  Level Kansas City Center
Wed 12:16:57 PM 38.6764 -97.1028 76° East 463 533 37,000  Level Kansas City Center
Wed 12:17:59 PM 38.7072 -96.9425 76° East 463 533 37,000  Level Kansas City Center
Wed 12:19:01 PM 38.7369 -96.7819 77° East 464 534 37,000  Level Kansas City Center
Wed 12:20:03 PM 38.7747 -96.5897 76° East 464 534 37,000  Level Kansas City Center
Wed 12:21:05 PM 38.8017 -96.4342 77° East 463 533 37,000  Level Kansas City Center
Wed 12:22:07 PM 38.8328 -96.2531 78° East 466 536 37,000  Level Kansas City Center
Wed 12:23:09 PM 38.8631 -96.1008 76° East 463 533 37,000  Level Kansas City Center
Wed 12:24:11 PM 38.8906 -95.9467 77° East 463 533 37,000  Level Kansas City Center
Wed 12:25:13 PM 38.9222 -95.7678 77° East 461 531 37,000  Level Kansas City Center
Wed 12:26:15 PM 38.9497 -95.6164 77° East 457 526 37,000  Level Kansas City Center
Wed 12:27:17 PM 38.9800 -95.4442 77° East 447 514 37,000  Level Kansas City Center
Wed 12:28:19 PM 39.0097 -95.2789 77° East 445 512 37,000  Level Kansas City Center
Wed 12:29:21 PM 39.0375 -95.1117 78° East 446 513 37,000  Level Kansas City Center
Wed 12:30:23 PM 39.0653 -94.9522 77° East 449 517 37,000  Level Kansas City Center
Wed 12:31:25 PM 39.0906 -94.8025 78° East 450 518 37,000  Level Kansas City Center
Wed 12:32:27 PM 39.1208 -94.6269 77° East 452 520 37,000  Level Kansas City Center
Wed 12:34:31 PM 39.1753 -94.3011 78° East 448 516 37,000  Level Kansas City Center
Wed 12:35:34 PM 39.2003 -94.1506 78° East 450 518 37,000  Level Kansas City Center
Wed 12:36:36 PM 39.2286 -93.9747 78° East 449 517 37,000  Level Kansas City Center
Wed 12:37:38 PM 39.2533 -93.8247 78° East 447 514 37,000  Level Kansas City Center
Wed 12:38:40 PM 39.2756 -93.6806 79° East 445 512 37,000  Level Kansas City Center
Wed 12:39:42 PM 39.3067 -93.4956 78° East 444 511 37,000  Level Kansas City Center
Wed 12:40:44 PM 39.3308 -93.3439 78° East 440 506 37,000  Level Kansas City Center
Wed 12:41:46 PM 39.3544 -93.1911 79° East 438 504 37,000  Level Kansas City Center
Wed 12:42:48 PM 39.3769 -93.0367 79° East 441 507 37,000  Level Kansas City Center
Wed 12:43:50 PM 39.4003 -92.8825 79° East 442 509 37,000  Level Kansas City Center
Wed 12:44:52 PM 39.4283 -92.6983 79° East 441 507 37,000  Level Kansas City Center
Wed 12:45:54 PM 39.4514 -92.5483 79° East 434 499 37,000  Level Kansas City Center
Wed 12:46:56 PM 39.4739 -92.3947 79° East 435 501 37,000  Level Kansas City Center
Wed 12:47:58 PM 39.4956 -92.2431 79° East 436 502 37,000  Level Kansas City Center
Wed 12:49:00 PM 39.5214 -92.0619 79° East 434 499 37,000  Level Kansas City Center
Wed 12:50:02 PM 39.5431 -91.9106 79° East 433 498 37,000  Level Kansas City Center
Wed 12:51:04 PM 39.5647 -91.7578 80° East 435 501 37,000  Level Kansas City Center
Wed 12:52:06 PM 39.5867 -91.6039 79° East 438 504 37,000  Level Kansas City Center
Wed 12:53:08 PM 39.6086 -91.4492 80° East 440 506 37,000  Level Kansas City Center
Wed 12:54:10 PM 39.6331 -91.2708 80° East 437 503 37,000  Level Kansas City Center
Wed 12:55:12 PM 39.6550 -91.1139 80° East 439 505 37,000  Level Kansas City Center
Wed 12:56:14 PM 39.6753 -90.9589 80° East 438 504 37,000  Level Kansas City Center
Wed 12:57:16 PM 39.6967 -90.8033 80° East 437 503 37,000  Level Kansas City Center
Wed 12:58:18 PM 39.7181 -90.6461 80° East 440 506 37,000  Level Kansas City Center
Wed 12:59:20 PM 39.7422 -90.4583 80° East 439 505 37,000  Level Kansas City Center
Wed 01:00:22 PM 39.7600 -90.3058 81° East 441 507 37,000  Level Kansas City Center
Wed 01:01:24 PM 39.7806 -90.1483 80° East 443 510 37,000  Level Kansas City Center
Wed 01:02:27 PM 39.8003 -89.9903 81° East 444 511 37,000  Level Kansas City Center
Wed 01:03:28 PM 39.8200 -89.8339 81° East 443 510 37,000  Level Kansas City Center
Wed 01:04:30 PM 39.8408 -89.6433 82° East 443 510 37,000  Level Kansas City Center
Wed 01:05:32 PM 39.8400 -89.4828 90° East 446 513 37,000  Level Kansas City Center
Wed 01:06:34 PM 39.8414 -89.3242 89° East 444 511 37,000  Level Kansas City Center
Wed 01:07:36 PM 39.8417 -89.1628 90° East 446 513 37,000  Level Kansas City Center
Wed 01:08:38 PM 39.8419 -89.0036 90° East 444 511 37,000  Level Kansas City Center
Wed 01:09:40 PM 39.8425 -88.8444 90° East 443 510 37,000  Level Kansas City Center
Wed 01:10:42 PM 39.8419 -88.6519 90° East 445 512 37,000  Level Kansas City Center
Wed 01:11:44 PM 39.8428 -88.4900 90° East 447 514 37,000  Level Kansas City Center
Wed 01:12:46 PM 39.8442 -88.3269 89° East 451 519 37,000  Level Kansas City Center
Wed 01:13:48 PM 39.8431 -88.1703 90° East 449 517 37,000  Level Kansas City Center
Wed 01:14:50 PM 39.8414 -87.9744 91° East 449 517 37,000  Level Kansas City Center
Wed 01:15:52 PM 39.8386 -87.8139 91° East 445 512 37,000  Level Kansas City Center
Wed 01:16:54 PM 39.8375 -87.6489 90° East 449 517 37,000  Level Kansas City Center
Wed 01:18:05 PM 39.8333 -87.4531 92° East 452 520 37,000  Level Indianapolis Center
Wed 01:19:07 PM 39.8319 -87.2897 91° East 449 517 37,000  Level Indianapolis Center
Wed 01:20:08 PM 39.8294 -87.1283 91° East 446 513 37,000  Level Indianapolis Center
Wed 01:21:10 PM 39.8267 -86.9658 91° East 446 513 37,000  Level Indianapolis Center
Wed 01:22:12 PM 39.8242 -86.8039 91° East 444 511 37,000  Level Indianapolis Center
Wed 01:23:14 PM 39.8208 -86.6400 91° East 450 518 37,000  Level Indianapolis Center
Wed 01:24:16 PM 39.8178 -86.4744 91° East 454 522 37,000  Level Indianapolis Center
Wed 01:25:18 PM 39.8283 -86.3136 85° East 463 533 37,000  Level Indianapolis Center
Wed 01:26:20 PM 39.8658 -86.1344 75° East 467 537 37,000  Level Indianapolis Center
Wed 01:27:22 PM 39.8994 -85.9703 75° East 465 535 37,000  Level Indianapolis Center
Wed 01:28:23 PM 39.9392 -85.7819 75° East 458 527 37,000  Level Indianapolis Center
Wed 01:29:25 PM 39.9739 -85.6194 74° East 461 531 37,000  Level Indianapolis Center
Wed 01:30:27 PM 40.0067 -85.4589 75° East 457 526 37,000  Level Indianapolis Center
Wed 01:31:29 PM 40.0386 -85.2986 75° East 455 524 37,000  Level Indianapolis Center
Wed 01:32:31 PM 40.0714 -85.1397 75° East 452 520 37,000  Level Indianapolis Center
Wed 01:33:33 PM 40.1028 -84.9811 75° East 450 518 37,000 -48 Level Indianapolis Center
Wed 01:34:35 PM 40.1381 -84.8064 75° East 447 514 36,900 -48 Descending Indianapolis Center
Wed 01:35:37 PM 40.1700 -84.6478 75° East 447 514 36,900  Level Indianapolis Center
Wed 01:36:38 PM 40.2022 -84.4889 75° East 447 514 36,900 49 Level Indianapolis Center
Wed 01:37:40 PM 40.2317 -84.3306 76° East 443 510 37,000 48 Climbing Indianapolis Center
Wed 01:38:42 PM 40.2639 -84.1719 75° East 445 512 37,000  Level Indianapolis Center
Wed 01:39:44 PM 40.3028 -84.0189 72° East 439 505 37,000 -48 Level Indianapolis Center
Wed 01:40:46 PM 40.3658 -83.8761 60° Northeast 444 511 36,900  Descending Indianapolis Center
Wed 01:41:48 PM 40.4294 -83.7364 59° Northeast 439 505 37,000  Climbing Indianapolis Center
Wed 01:42:50 PM 40.4928 -83.5981 59° Northeast 436 502 36,900 -48 Descending Indianapolis Center
Wed 01:43:52 PM 40.5672 -83.4358 59° Northeast 438 504 36,900  Level Indianapolis Center
Wed 01:44:53 PM 40.6303 -83.2956 59° Northeast 438 504 36,900 49 Level Indianapolis Center
Wed 01:45:55 PM 40.6939 -83.1564 59° Northeast 439 505 37,000 54 Climbing Indianapolis Center
Wed 01:46:45 PM 40.7494 -83.0333 59° Northeast 444 511 37,000  Level Cleveland Center
Wed 01:47:45 PM 40.8131 -82.8931 59° Northeast 444 511 37,000  Level Cleveland Center
Wed 01:48:45 PM 40.8719 -82.7550 61° Northeast 439 505 37,000  Level Cleveland Center
Wed 01:49:45 PM 40.9328 -82.6142 60° Northeast 439 505 37,000  Level Cleveland Center
Wed 01:50:45 PM 40.9958 -82.4703 60° Northeast 434 499 37,000  Level Cleveland Center
Wed 01:51:45 PM 41.0586 -82.3317 59° Northeast 439 505 37,000  Level Cleveland Center
Wed 01:52:45 PM 41.1189 -82.1928 60° Northeast 439 505 37,000  Level Cleveland Center
Wed 01:53:45 PM 41.1814 -82.0481 60° Northeast 447 514 37,000  Level Cleveland Center
Wed 01:54:45 PM 41.2436 -81.9086 59° Northeast 439 505 37,000  Level Cleveland Center
Wed 01:55:45 PM 41.3056 -81.7661 60° Northeast 439 505 37,000  Level Cleveland Center
Wed 01:56:45 PM 41.3653 -81.6289 60° Northeast 439 505 37,000  Level Cleveland Center
Wed 01:57:45 PM 41.4247 -81.4858 61° Northeast 439 505 37,000  Level Cleveland Center
Wed 01:58:45 PM 41.4842 -81.3453 61° Northeast 439 505 37,000  Level Cleveland Center
Wed 01:59:45 PM 41.5433 -81.2044 61° Northeast 439 505 37,000  Level Cleveland Center
Wed 02:00:45 PM 41.6047 -81.0608 60° Northeast 439 505 37,000  Level Cleveland Center
Wed 02:01:45 PM 41.6633 -80.9167 61° Northeast 439 505 37,000  Level Cleveland Center
Wed 02:02:45 PM 41.7181 -80.7861 61° Northeast 439 505 37,000  Level Cleveland Center
Wed 02:03:45 PM 41.7681 -80.6417 65° Northeast 439 505 37,000  Level Cleveland Center
Wed 02:04:45 PM 41.7597 -80.4775 94° East 425 489 37,000  Level Cleveland Center
Wed 02:05:45 PM 41.7469 -80.3103 96° East 440 506 37,000  Level Cleveland Center
Wed 02:06:45 PM 41.7319 -80.1464 97° East 445 512 37,000  Level Cleveland Center
Wed 02:07:45 PM 41.7167 -79.9822 97° East 445 512 37,000  Level Cleveland Center
Wed 02:08:45 PM 41.7008 -79.7989 97° East 445 512 37,000  Level Cleveland Center
Wed 02:09:45 PM 41.6831 -79.6378 98° East 445 512 37,000  Level Cleveland Center
Wed 02:10:45 PM 41.6714 -79.4933 96° East 440 506 37,000  Level Cleveland Center
Wed 02:11:45 PM 41.6550 -79.3297 98° East 445 512 37,000  Level Cleveland Center
Wed 02:12:45 PM 41.6386 -79.1633 97° East 445 512 37,000  Level Cleveland Center
Wed 02:13:45 PM 41.6239 -79.0025 97° East 445 512 37,000 -200 Level Cleveland Center
Wed 02:14:45 PM 41.6050 -78.8392 99° East 445 512 36,600 -700 Descending Cleveland Center
Wed 02:15:45 PM 41.5919 -78.6786 96° East 445 512 35,600 -989 Descending Cleveland Center
Wed 02:17:41 PM 41.5556 -78.3672 99° East 446 513 33,700 -994 Descending New York Center
Wed 02:18:40 PM 41.5369 -78.2014 98° East 451 519 32,700 -992 Descending New York Center
Wed 02:19:42 PM 41.5200 -78.0361 98° East 451 519 31,700 -850 Descending New York Center
Wed 02:20:40 PM 41.4986 -77.8703 100° East 451 519 31,000 -353 Descending New York Center
Wed 02:21:41 PM 41.4753 -77.7017 100° East 451 519 31,000  Level New York Center
Wed 02:22:41 PM 41.4497 -77.5331 101° East 451 519 31,000 -350 Level New York Center
Wed 02:23:41 PM 41.4256 -77.3700 101° East 456 525 30,300 -843 Descending New York Center
Wed 02:24:42 PM 41.4033 -77.2017 100° East 456 525 29,300 -992 Descending New York Center
Wed 02:25:42 PM 41.3769 -77.0361 102° East 456 525 28,300 -1,008 Descending New York Center
Wed 02:26:41 PM 41.3522 -76.8706 101° East 456 525 27,300 -1,000 Descending New York Center
Wed 02:27:42 PM 41.3189 -76.7047 105° East 456 525 26,300 -992 Descending New York Center
Wed 02:28:42 PM 41.2767 -76.5464 109° East 456 525 25,300 -1,322 Descending New York Center
Wed 02:29:40 PM 41.2322 -76.3908 111° Southeast 451 519 23,700 -2,118 Descending New York Center
Wed 02:30:41 PM 41.1894 -76.2356 110° East 451 519 21,100 -2,876 Descending New York Center
Wed 02:31:41 PM 41.1508 -76.0753 108° East 434 499 17,900 -2,132 Descending New York Center
Wed 02:32:42 PM 41.1111 -75.9372 111° Southeast 409 471 16,800 -1,240 Descending New York Center
Wed 02:33:42 PM 41.0792 -75.8111 109° East 403 464 15,400 -1,475 Descending New York Center
Wed 02:34:40 PM 41.0392 -75.6678 110° East 392 451 13,900 -1,220 Descending New York Center
Wed 02:35:40 PM 41.0064 -75.5525 111° Southeast 378 435 13,000 -545 Descending New York Center
Wed 02:36:41 PM 40.9661 -75.4125 111° Southeast 378 435 12,800 -800 Descending New York Center
Wed 02:37:40 PM 40.9353 -75.3003 110° East 355 409 11,400 -1,462 Descending New York Center
Wed 02:38:40 PM 40.9114 -75.2136 110° East 300 345 9,900 -1,140 Descending New York Center
Wed 02:39:41 PM 40.8839 -75.1158 110° East 285 328 9,100 -393 Descending New York Center
Wed 02:40:42 PM 40.8542 -75.0125 111° Southeast 280 322 9,100 -645 Level New York Center
Wed 02:41:42 PM 40.8242 -74.9200 113° Southeast 275 316 7,800 -1,068 Descending New York Center
Wed 02:42:40 PM 40.7767 -74.8431 129° Southeast 275 316 7,000 -763 Descending New York Center
Wed 02:43:40 PM 40.7333 -74.7747 130° Southeast 270 311 6,300 -496 Descending New York Center
Wed 02:44:41 PM 40.6903 -74.6903 124° Southeast 263 303 6,000 -146 Descending New York Center
Wed 02:45:43 PM 40.7219 -74.6181 60° Northeast 201 231 6,000  Level New York Center
Wed 02:46:40 PM 40.7981 -74.5842 19° North 209 241 6,000  Level New York Center
Wed 02:47:49 PM 40.8833 -74.5500 17° North 264 304 6,000  Level New York TRACON
Wed 02:48:42 PM 40.9350 -74.5314 15° North 262 302 6,000  Level New York Center
Wed 02:49:42 PM 40.9828 -74.4708 44° Northeast 254 292 6,000 -350 Level New York Center
Wed 02:50:42 PM 41.0203 -74.4014 54° Northeast 224 258 5,300 -472 Descending New York Center
Wed 02:51:49 PM 41.0000 -74.3167 108° East 216 249 5,000 -520 Descending New York TRACON
Wed 02:52:49 PM 40.9667 -74.2500 123° Southeast 214 246 4,200 -500 Descending New York TRACON
Wed 02:53:49 PM 40.9500 -74.1667 105° East 215 247 4,000 -300 Descending New York TRACON
Wed 02:54:49 PM 40.9167 -74.1167 131° Southeast 193 222 3,600 -450 Descending New York TRACON
Wed 02:55:49 PM 40.8833 -74.0833 143° Southeast 184 212 3,100 -350 Descending New York TRACON
Wed 02:56:49 PM 40.8333 -74.0833 180° South 182 209 2,900 -200 Descending New York TRACON

Login

Don't have an account? Register now (free) for customized features, flight alerts, and more!